Snydersburg, Pennsylvania
Current Conditions -  °F | °C
As of 4:36 AM on Thursday 27 Nov 2014 (Local Time) from KDUJ Reporting Station
Haze Haze  
Wind Chill: 30°   Ceiling: 1300
Heat Index: 30°   Visibility: 6mi
Dew Point: 28°   Wind: 0mph
Humidity: 92%   Direction: NA
Pressure: 29.94"   Gusts: NA
Location:  41.33°N, 79.36°W
Report Text: KDUJ 270936Z AUTO 00000KT 6SM BR BKN013 OVC019 M01/M02 A2994 RMK AO2 T10111022
Loading
Personal Weather Stations






























Interactive Weather Map New forecast layout! Learn more

10-Day Weather Forecast

Advertisements
Track Severe Weather on mobile